KECG/ECG METAR and TAF weather

Enter ICAO airport designator
Station Type Date Time Source
KECG METAR 2019/02/23 22:54 UTC NOAA

KECG 232254Z 09009G22KT 2SM +RA BR SCT006 BKN017 OVC034 13/11 A3011 RMK AO2 SFC VIS 2 1/2 SLP197 P0018 T01280111


Station Type Date Time Source
KECG Decoded METAR 2019/02/23 22:54 UTC NOAA

ELIZABETH CITY C/G REGN AIRPORT , NC, United States (KECG) 36-15N 076-10W 11M
Feb 23, 2019 - 05:54 PM EST / 2019.02.23 2254 UTC
Wind: from the E (090 degrees) at 10 MPH (9 KT) gusting to 25 MPH (22 KT):0
Visibility: 2 mile(s):0
Sky conditions: overcast
Weather: heavy rain; mist
Precipitation last hour: 0.18 inches
Temperature: 55.0 F (12.8 C)
Dew Point: 52.0 F (11.1 C)
Relative Humidity: 89%
Pressure (altimeter): 30.11 in. Hg (1019 hPa)
ob: KECG 232254Z 09009G22KT 2SM +RA BR SCT006 BKN017 OVC034 13/11 A3011 RMK AO2 SFC VIS 2 1/2 SLP197 P0018 T01280111
cycle: 23

Station Type Date Time Source
KECG TAF 2019/02/23 21:21 UTC NOAA

TAF KECG 232111Z 2321/2418 07010KT 2SM RA BR OVC004
FM240200 12006KT 2SM -RA BR OVC007
FM240400 16006KT 1 1/2SM -RA BR OVC008
FM241200 20010KT P6SM OVC006 WS020/22040KT
FM241600 22015G25KT P6SM BKN020


Example: see airport list